sensor_id;sensor_type;location;lat;lon;timestamp;pressure;altitude;pressure_sealevel;temperature;humidity
52185;BME280;38160;52.876;18.778;2023-02-15T01:07:48;102588.23;;;-0.75;98.74
52185;BME280;38160;52.876;18.778;2023-02-15T01:10:28;102581.11;;;-0.73;98.93
52185;BME280;38160;52.876;18.778;2023-02-15T01:14:01;102575.88;;;-0.76;98.87
52185;BME280;38160;52.876;18.778;2023-02-15T01:16:39;102577.45;;;-0.74;98.56
52185;BME280;38160;52.876;18.778;2023-02-15T01:19:36;102579.70;;;-0.79;98.65
52185;BME280;38160;52.876;18.778;2023-02-15T01:22:46;102575.11;;;-0.79;98.63
52185;BME280;38160;52.876;18.778;2023-02-15T01:34:19;102558.13;;;-0.85;98.74
52185;BME280;38160;52.876;18.778;2023-02-15T01:54:41;102559.66;;;-0.96;98.77
52185;BME280;38160;52.876;18.778;2023-02-15T01:57:23;102560.52;;;-1.01;98.76
52185;BME280;38160;52.876;18.778;2023-02-15T02:00:09;102559.22;;;-0.99;99.04
52185;BME280;38160;52.876;18.778;2023-02-15T02:02:48;102551.98;;;-0.99;98.76
52185;BME280;38160;52.876;18.778;2023-02-15T02:05:26;102548.95;;;-0.98;98.90
52185;BME280;38160;52.876;18.778;2023-02-15T02:08:06;102548.50;;;-0.94;98.87
52185;BME280;38160;52.876;18.778;2023-02-15T02:10:41;102546.34;;;-0.93;99.38
52185;BME280;38160;52.876;18.778;2023-02-15T02:13:15;102541.77;;;-0.88;99.69
52185;BME280;38160;52.876;18.778;2023-02-15T02:16:15;102535.80;;;-0.83;99.77
52185;BME280;38160;52.876;18.778;2023-02-15T02:19:01;102538.02;;;-0.80;99.51
52185;BME280;38160;52.876;18.778;2023-02-15T02:22:20;102540.45;;;-0.85;99.02
52185;BME280;38160;52.876;18.778;2023-02-15T02:25:24;102536.29;;;-0.94;99.13
52185;BME280;38160;52.876;18.778;2023-02-15T02:28:35;102532.14;;;-1.04;98.70
52185;BME280;38160;52.876;18.778;2023-02-15T02:35:15;102527.34;;;-1.09;99.27
52185;BME280;38160;52.876;18.778;2023-02-15T02:38:17;102527.12;;;-1.07;99.16
52185;BME280;38160;52.876;18.778;2023-02-15T02:41:07;102523.73;;;-1.06;99.49
52185;BME280;38160;52.876;18.778;2023-02-15T02:43:50;102521.63;;;-1.06;99.36
52185;BME280;38160;52.876;18.778;2023-02-15T02:46:47;102521.92;;;-1.05;99.46
52185;BME280;38160;52.876;18.778;2023-02-15T02:49:37;102528.08;;;-1.04;99.39
52185;BME280;38160;52.876;18.778;2023-02-15T02:52:35;102530.74;;;-1.04;99.36
52185;BME280;38160;52.876;18.778;2023-02-15T02:55:15;102532.98;;;-1.02;99.61
52185;BME280;38160;52.876;18.778;2023-02-15T02:57:55;102534.27;;;-0.97;99.62
52185;BME280;38160;52.876;18.778;2023-02-15T03:00:38;102536.21;;;-0.91;99.60
52185;BME280;38160;52.876;18.778;2023-02-15T03:03:35;102533.38;;;-0.85;99.82
52185;BME280;38160;52.876;18.778;2023-02-15T03:06:19;102529.96;;;-0.76;99.82
52185;BME280;38160;52.876;18.778;2023-02-15T03:09:03;102531.39;;;-0.71;99.77
52185;BME280;38160;52.876;18.778;2023-02-15T03:11:41;102533.70;;;-0.66;99.91
52185;BME280;38160;52.876;18.778;2023-02-15T03:14:19;102527.31;;;-0.59;99.95
52185;BME280;38160;52.876;18.778;2023-02-15T03:17:05;102527.16;;;-0.54;99.91
52185;BME280;38160;52.876;18.778;2023-02-15T03:19:41;102528.69;;;-0.52;99.97
52185;BME280;38160;52.876;18.778;2023-02-15T03:22:20;102525.01;;;-0.47;99.90
52185;BME280;38160;52.876;18.778;2023-02-15T03:25:01;102531.23;;;-0.43;99.93
52185;BME280;38160;52.876;18.778;2023-02-15T03:27:41;102528.65;;;-0.39;100.00
52185;BME280;38160;52.876;18.778;2023-02-15T03:30:22;102519.52;;;-0.35;99.96
52185;BME280;38160;52.876;18.778;2023-02-15T03:33:02;102521.73;;;-0.27;100.00
52185;BME280;38160;52.876;18.778;2023-02-15T03:38:20;102521.06;;;-0.16;99.92
52185;BME280;38160;52.876;18.778;2023-02-15T03:41:00;102518.07;;;-0.17;99.92
52185;BME280;38160;52.876;18.778;2023-02-15T03:43:48;102519.00;;;-0.14;100.00
52185;BME280;38160;52.876;18.778;2023-02-15T03:46:25;102518.90;;;-0.15;99.93
52185;BME280;38160;52.876;18.778;2023-02-15T03:49:05;102516.95;;;-0.15;99.99
52185;BME280;38160;52.876;18.778;2023-02-15T03:51:42;102519.02;;;-0.14;100.00
52185;BME280;38160;52.876;18.778;2023-02-15T03:54:18;102516.91;;;-0.09;100.00
52185;BME280;38160;52.876;18.778;2023-02-15T03:57:11;102515.50;;;-0.03;100.00
52185;BME280;38160;52.876;18.778;2023-02-15T04:00:05;102514.77;;;0.02;100.00
52185;BME280;38160;52.876;18.778;2023-02-15T04:03:12;102509.16;;;0.07;100.00
52185;BME280;38160;52.876;18.778;2023-02-15T04:05:50;102510.20;;;0.13;100.00
52185;BME280;38160;52.876;18.778;2023-02-15T04:08:23;102506.33;;;0.17;100.00
52185;BME280;38160;52.876;18.778;2023-02-15T04:11:17;102507.89;;;0.23;100.00
52185;BME280;38160;52.876;18.778;2023-02-15T04:13:50;102507.11;;;0.26;100.00
52185;BME280;38160;52.876;18.778;2023-02-15T04:16:29;102506.93;;;0.26;99.98
52185;BME280;38160;52.876;18.778;2023-02-15T04:19:02;102507.36;;;0.29;100.00
52185;BME280;38160;52.876;18.778;2023-02-15T04:21:54;102504.08;;;0.26;100.00
52185;BME280;38160;52.876;18.778;2023-02-15T04:24:47;102505.45;;;0.28;100.00
52185;BME280;38160;52.876;18.778;2023-02-15T04:27:40;102505.80;;;0.28;100.00
52185;BME280;38160;52.876;18.778;2023-02-15T04:46:01;102502.33;;;0.36;100.00
52185;BME280;38160;52.876;18.778;2023-02-15T04:48:39;102503.93;;;0.41;100.00
52185;BME280;38160;52.876;18.778;2023-02-15T04:51:15;102504.26;;;0.47;100.00
52185;BME280;38160;52.876;18.778;2023-02-15T04:56:57;102506.25;;;0.56;100.00
52185;BME280;38160;52.876;18.778;2023-02-15T04:59:32;102507.89;;;0.59;100.00
52185;BME280;38160;52.876;18.778;2023-02-15T05:02:06;102503.59;;;0.66;100.00
52185;BME280;38160;52.876;18.778;2023-02-15T05:04:41;102503.04;;;0.71;100.00
52185;BME280;38160;52.876;18.778;2023-02-15T05:07:17;102503.80;;;0.74;100.00
52185;BME280;38160;52.876;18.778;2023-02-15T05:09:54;102504.39;;;0.78;100.00
52185;BME280;38160;52.876;18.778;2023-02-15T05:12:27;102503.27;;;0.79;100.00
52185;BME280;38160;52.876;18.778;2023-02-15T05:15:02;102503.39;;;0.81;100.00
52185;BME280;38160;52.876;18.778;2023-02-15T05:17:35;102500.49;;;0.83;100.00
52185;BME280;38160;52.876;18.778;2023-02-15T05:20:10;102497.30;;;0.78;100.00
52185;BME280;38160;52.876;18.778;2023-02-15T05:22:44;102494.51;;;0.72;100.00
52185;BME280;38160;52.876;18.778;2023-02-15T05:25:19;102495.84;;;0.70;100.00
52185;BME280;38160;52.876;18.778;2023-02-15T05:28:09;102495.69;;;0.74;100.00
52185;BME280;38160;52.876;18.778;2023-02-15T05:31:02;102499.56;;;0.79;100.00
52185;BME280;38160;52.876;18.778;2023-02-15T05:33:45;102497.14;;;0.78;100.00
52185;BME280;38160;52.876;18.778;2023-02-15T05:36:19;102493.94;;;0.73;100.00
52185;BME280;38160;52.876;18.778;2023-02-15T05:38:53;102495.23;;;0.77;100.00
52185;BME280;38160;52.876;18.778;2023-02-15T05:41:27;102496.41;;;0.83;100.00
52185;BME280;38160;52.876;18.778;2023-02-15T05:44:00;102495.73;;;0.87;100.00
52185;BME280;38160;52.876;18.778;2023-02-15T05:46:34;102489.61;;;0.90;100.00
52185;BME280;38160;52.876;18.778;2023-02-15T05:49:08;102493.20;;;0.93;100.00
52185;BME280;38160;52.876;18.778;2023-02-15T05:51:42;102496.52;;;0.90;100.00
52185;BME280;38160;52.876;18.778;2023-02-15T05:54:18;102496.45;;;0.92;100.00
52185;BME280;38160;52.876;18.778;2023-02-15T05:56:52;102497.30;;;0.93;100.00
52185;BME280;38160;52.876;18.778;2023-02-15T05:59:26;102493.45;;;0.91;100.00
52185;BME280;38160;52.876;18.778;2023-02-15T06:08:51;102497.21;;;0.95;100.00
52185;BME280;38160;52.876;18.778;2023-02-15T06:11:24;102494.56;;;1.00;100.00
52185;BME280;38160;52.876;18.778;2023-02-15T06:13:58;102497.87;;;1.06;100.00
52185;BME280;38160;52.876;18.778;2023-02-15T06:16:31;102495.27;;;1.09;100.00
52185;BME280;38160;52.876;18.778;2023-02-15T06:19:05;102497.98;;;1.12;100.00
52185;BME280;38160;52.876;18.778;2023-02-15T06:21:39;102495.88;;;1.12;100.00
52185;BME280;38160;52.876;18.778;2023-02-15T06:24:13;102497.80;;;1.12;100.00
52185;BME280;38160;52.876;18.778;2023-02-15T06:26:47;102497.40;;;1.14;100.00
52185;BME280;38160;52.876;18.778;2023-02-15T06:29:20;102497.86;;;1.16;100.00
52185;BME280;38160;52.876;18.778;2023-02-15T06:31:54;102500.44;;;1.18;100.00
52185;BME280;38160;52.876;18.778;2023-02-15T06:34:30;102504.88;;;1.22;100.00
52185;BME280;38160;52.876;18.778;2023-02-15T06:37:03;102503.35;;;1.26;100.00
52185;BME280;38160;52.876;18.778;2023-02-15T06:39:37;102504.16;;;1.27;100.00
52185;BME280;38160;52.876;18.778;2023-02-15T06:42:10;102500.81;;;1.31;100.00
52185;BME280;38160;52.876;18.778;2023-02-15T06:44:51;102504.06;;;1.34;100.00
52185;BME280;38160;52.876;18.778;2023-02-15T06:47:25;102504.45;;;1.34;100.00
52185;BME280;38160;52.876;18.778;2023-02-15T06:49:58;102504.27;;;1.34;100.00
52185;BME280;38160;52.876;18.778;2023-02-15T06:52:32;102505.42;;;1.36;100.00
52185;BME280;38160;52.876;18.778;2023-02-15T06:55:12;102506.23;;;1.38;100.00
52185;BME280;38160;52.876;18.778;2023-02-15T07:01:48;102504.45;;;1.38;100.00
52185;BME280;38160;52.876;18.778;2023-02-15T07:04:22;102506.07;;;1.42;100.00
52185;BME280;38160;52.876;18.778;2023-02-15T07:06:56;102500.25;;;1.41;100.00
52185;BME280;38160;52.876;18.778;2023-02-15T07:09:33;102499.02;;;1.46;100.00
52185;BME280;38160;52.876;18.778;2023-02-15T07:12:07;102489.98;;;1.50;100.00
52185;BME280;38160;52.876;18.778;2023-02-15T07:14:58;102488.20;;;1.55;100.00
52185;BME280;38160;52.876;18.778;2023-02-15T07:17:32;102484.17;;;1.58;100.00
52185;BME280;38160;52.876;18.778;2023-02-15T07:20:08;102480.35;;;1.60;100.00
52185;BME280;38160;52.876;18.778;2023-02-15T07:22:42;102477.58;;;1.68;100.00
52185;BME280;38160;52.876;18.778;2023-02-15T07:25:16;102470.46;;;1.72;100.00
52185;BME280;38160;52.876;18.778;2023-02-15T07:27:57;102472.73;;;1.78;100.00
52185;BME280;38160;52.876;18.778;2023-02-15T07:30:30;102469.02;;;1.82;100.00
52185;BME280;38160;52.876;18.778;2023-02-15T07:33:04;102467.39;;;1.87;100.00
52185;BME280;38160;52.876;18.778;2023-02-15T07:38:53;102462.23;;;1.87;100.00
52185;BME280;38160;52.876;18.778;2023-02-15T07:41:27;102462.27;;;1.91;100.00
52185;BME280;38160;52.876;18.778;2023-02-15T07:47:08;102457.83;;;2.07;100.00
52185;BME280;38160;52.876;18.778;2023-02-15T07:50:02;102453.31;;;2.09;100.00
52185;BME280;38160;52.876;18.778;2023-02-15T07:52:40;102459.38;;;2.13;100.00
52185;BME280;38160;52.876;18.778;2023-02-15T07:55:14;102456.11;;;2.14;100.00
52185;BME280;38160;52.876;18.778;2023-02-15T07:58:00;102445.30;;;2.14;100.00
52185;BME280;38160;52.876;18.778;2023-02-15T08:00:38;102445.86;;;2.26;100.00
52185;BME280;38160;52.876;18.778;2023-02-15T08:03:28;102444.05;;;2.35;100.00
52185;BME280;38160;52.876;18.778;2023-02-15T08:06:04;102441.83;;;2.37;100.00
52185;BME280;38160;52.876;18.778;2023-02-15T08:08:38;102441.28;;;2.41;100.00
52185;BME280;38160;52.876;18.778;2023-02-15T08:11:20;102438.08;;;2.49;100.00
52185;BME280;38160;52.876;18.778;2023-02-15T08:14:08;102432.59;;;2.57;100.00
52185;BME280;38160;52.876;18.778;2023-02-15T08:16:44;102432.66;;;2.63;100.00
52185;BME280;38160;52.876;18.778;2023-02-15T08:19:20;102428.80;;;2.66;100.00
52185;BME280;38160;52.876;18.778;2023-02-15T08:21:59;102422.55;;;2.71;100.00
52185;BME280;38160;52.876;18.778;2023-02-15T08:24:37;102422.33;;;2.80;100.00
52185;BME280;38160;52.876;18.778;2023-02-15T08:27:11;102418.66;;;2.90;100.00
52185;BME280;38160;52.876;18.778;2023-02-15T08:29:45;102418.93;;;2.95;100.00
52185;BME280;38160;52.876;18.778;2023-02-15T08:32:20;102419.45;;;3.03;100.00
52185;BME280;38160;52.876;18.778;2023-02-15T08:34:56;102416.60;;;3.11;100.00
52185;BME280;38160;52.876;18.778;2023-02-15T08:37:31;102411.58;;;3.12;100.00
52185;BME280;38160;52.876;18.778;2023-02-15T08:40:09;102410.77;;;3.22;100.00
52185;BME280;38160;52.876;18.778;2023-02-15T08:42:43;102407.20;;;3.33;100.00
52185;BME280;38160;52.876;18.778;2023-02-15T08:45:17;102407.67;;;3.41;100.00
52185;BME280;38160;52.876;18.778;2023-02-15T08:47:50;102403.33;;;3.47;100.00
52185;BME280;38160;52.876;18.778;2023-02-15T08:50:24;102400.83;;;3.50;100.00
52185;BME280;38160;52.876;18.778;2023-02-15T08:57:00;102401.36;;;3.68;100.00
52185;BME280;38160;52.876;18.778;2023-02-15T08:59:36;102397.90;;;3.74;100.00
52185;BME280;38160;52.876;18.778;2023-02-15T09:02:11;102396.10;;;3.78;100.00
52185;BME280;38160;52.876;18.778;2023-02-15T09:04:55;102392.90;;;3.81;100.00
52185;BME280;38160;52.876;18.778;2023-02-15T09:07:30;102384.66;;;3.85;100.00
52185;BME280;38160;52.876;18.778;2023-02-15T09:10:08;102385.79;;;3.88;100.00
52185;BME280;38160;52.876;18.778;2023-02-15T09:12:49;102380.02;;;3.86;99.76
52185;BME280;38160;52.876;18.778;2023-02-15T09:15:28;102381.30;;;3.85;99.64
52185;BME280;38160;52.876;18.778;2023-02-15T09:19:35;102381.86;;;3.88;99.65
52185;BME280;38160;52.876;18.778;2023-02-15T10:06:55;102343.70;;;4.30;98.92
52185;BME280;38160;52.876;18.778;2023-02-15T10:10:13;102347.66;;;4.36;98.48
52185;BME280;38160;52.876;18.778;2023-02-15T10:13:03;102345.69;;;4.32;98.36
52185;BME280;38160;52.876;18.778;2023-02-15T10:15:59;102350.33;;;4.32;98.15
52185;BME280;38160;52.876;18.778;2023-02-15T10:19:05;102342.69;;;4.32;98.08
52185;BME280;38160;52.876;18.778;2023-02-15T10:22:02;102341.08;;;4.32;97.77
52185;BME280;38160;52.876;18.778;2023-02-15T10:25:01;102343.35;;;4.30;97.72
52185;BME280;38160;52.876;18.778;2023-02-15T10:27:49;102337.23;;;4.31;97.84
52185;BME280;38160;52.876;18.778;2023-02-15T10:30:34;102334.91;;;4.28;97.58
52185;BME280;38160;52.876;18.778;2023-02-15T10:40:17;102321.78;;;4.43;97.54
52185;BME280;38160;52.876;18.778;2023-02-15T10:43:33;102318.96;;;4.46;97.65
52185;BME280;38160;52.876;18.778;2023-02-15T10:46:15;102312.17;;;4.46;97.42
52185;BME280;38160;52.876;18.778;2023-02-15T10:55:58;102297.43;;;4.52;97.42
52185;BME280;38160;52.876;18.778;2023-02-15T10:59:07;102296.71;;;4.62;97.59
52185;BME280;38160;52.876;18.778;2023-02-15T11:01:59;102293.86;;;4.68;97.63
52185;BME280;38160;52.876;18.778;2023-02-15T11:05:57;102287.67;;;4.70;96.94
52185;BME280;38160;52.876;18.778;2023-02-15T11:08:43;102289.07;;;4.74;96.87
52185;BME280;38160;52.876;18.778;2023-02-15T11:11:27;102288.42;;;4.79;96.99
52185;BME280;38160;52.876;18.778;2023-02-15T11:14:38;102291.38;;;4.81;96.87
52185;BME280;38160;52.876;18.778;2023-02-15T11:29:33;102265.50;;;4.84;95.99
52185;BME280;38160;52.876;18.778;2023-02-15T11:32:21;102263.07;;;4.80;96.08
52185;BME280;38160;52.876;18.778;2023-02-15T11:35:17;102261.88;;;4.85;96.41
52185;BME280;38160;52.876;18.778;2023-02-15T11:42:09;102258.73;;;5.02;96.25
52185;BME280;38160;52.876;18.778;2023-02-15T11:45:18;102258.20;;;5.03;95.64
52185;BME280;38160;52.876;18.778;2023-02-15T11:48:00;102247.80;;;4.97;95.88
52185;BME280;38160;52.876;18.778;2023-02-15T11:50:51;102244.80;;;4.87;95.56
52185;BME280;38160;52.876;18.778;2023-02-15T11:53:31;102246.02;;;4.91;96.18
52185;BME280;38160;52.876;18.778;2023-02-15T11:56:19;102242.58;;;4.98;96.24
52185;BME280;38160;52.876;18.778;2023-02-15T11:59:21;102234.39;;;5.04;95.74
52185;BME280;38160;52.876;18.778;2023-02-15T12:02:46;102229.77;;;5.01;95.64
52185;BME280;38160;52.876;18.778;2023-02-15T12:05:26;102230.04;;;4.93;95.30
52185;BME280;38160;52.876;18.778;2023-02-15T12:08:08;102228.04;;;4.84;95.42
52185;BME280;38160;52.876;18.778;2023-02-15T12:11:00;102224.42;;;4.82;95.93
52185;BME280;38160;52.876;18.778;2023-02-15T12:13:55;102226.95;;;4.85;96.00
52185;BME280;38160;52.876;18.778;2023-02-15T12:16:41;102224.13;;;4.90;96.19
52185;BME280;38160;52.876;18.778;2023-02-15T12:19:32;102217.65;;;4.94;95.59
52185;BME280;38160;52.876;18.778;2023-02-15T12:22:22;102216.27;;;4.97;95.42
52185;BME280;38160;52.876;18.778;2023-02-15T12:25:01;102217.30;;;5.01;95.65
52185;BME280;38160;52.876;18.778;2023-02-15T12:27:44;102213.95;;;5.03;95.80
52185;BME280;38160;52.876;18.778;2023-02-15T12:30:23;102212.44;;;5.04;95.56
52185;BME280;38160;52.876;18.778;2023-02-15T12:33:05;102209.40;;;5.01;95.54
52185;BME280;38160;52.876;18.778;2023-02-15T12:35:57;102202.95;;;4.99;95.57
52185;BME280;38160;52.876;18.778;2023-02-15T12:42:16;102195.98;;;5.08;95.65
52185;BME280;38160;52.876;18.778;2023-02-15T12:45:04;102194.89;;;5.08;95.70
52185;BME280;38160;52.876;18.778;2023-02-15T12:48:16;102190.34;;;5.16;95.37
52185;BME280;38160;52.876;18.778;2023-02-15T12:51:09;102185.24;;;5.27;95.47
52185;BME280;38160;52.876;18.778;2023-02-15T12:53:49;102188.04;;;5.28;94.97
52185;BME280;38160;52.876;18.778;2023-02-15T12:56:44;102183.34;;;5.26;95.01
52185;BME280;38160;52.876;18.778;2023-02-15T12:59:20;102185.53;;;5.19;94.82
52185;BME280;38160;52.876;18.778;2023-02-15T13:01:57;102182.84;;;5.22;95.13
52185;BME280;38160;52.876;18.778;2023-02-15T13:04:36;102180.08;;;5.24;94.76
52185;BME280;38160;52.876;18.778;2023-02-15T13:07:32;102181.36;;;5.20;94.53
52185;BME280;38160;52.876;18.778;2023-02-15T13:10:24;102179.25;;;5.20;94.72
52185;BME280;38160;52.876;18.778;2023-02-15T13:13:10;102174.60;;;5.23;94.73
52185;BME280;38160;52.876;18.778;2023-02-15T13:15:50;102169.66;;;5.19;94.58
52185;BME280;38160;52.876;18.778;2023-02-15T13:18:34;102166.98;;;5.22;94.98
52185;BME280;38160;52.876;18.778;2023-02-15T13:21:16;102167.26;;;5.26;94.84
52185;BME280;38160;52.876;18.778;2023-02-15T13:24:00;102163.52;;;5.23;94.52
52185;BME280;38160;52.876;18.778;2023-02-15T13:26:37;102157.27;;;5.20;94.58
52185;BME280;38160;52.876;18.778;2023-02-15T13:29:24;102153.69;;;5.14;94.39
52185;BME280;38160;52.876;18.778;2023-02-15T13:32:12;102151.59;;;5.07;94.33
52185;BME280;38160;52.876;18.778;2023-02-15T13:34:58;102151.47;;;5.01;94.59
52185;BME280;38160;52.876;18.778;2023-02-15T13:37:45;102147.20;;;4.97;94.80
52185;BME280;38160;52.876;18.778;2023-02-15T13:41:06;102144.77;;;4.90;94.46
52185;BME280;38160;52.876;18.778;2023-02-15T13:44:03;102144.11;;;4.87;94.34
52185;BME280;38160;52.876;18.778;2023-02-15T13:46:57;102139.70;;;4.79;94.79
52185;BME280;38160;52.876;18.778;2023-02-15T13:49:47;102133.58;;;4.84;95.24
52185;BME280;38160;52.876;18.778;2023-02-15T13:52:28;102133.50;;;4.88;94.72
52185;BME280;38160;52.876;18.778;2023-02-15T13:58:27;102133.55;;;4.81;94.95
52185;BME280;38160;52.876;18.778;2023-02-15T14:01:12;102131.35;;;4.88;94.78
52185;BME280;38160;52.876;18.778;2023-02-15T14:04:17;102134.43;;;4.87;94.67
52185;BME280;38160;52.876;18.778;2023-02-15T14:07:17;102126.64;;;4.83;94.40
52185;BME280;38160;52.876;18.778;2023-02-15T14:10:05;102126.93;;;4.81;94.29
52185;BME280;38160;52.876;18.778;2023-02-15T14:12:58;102128.48;;;4.76;94.39
52185;BME280;38160;52.876;18.778;2023-02-15T14:15:43;102125.20;;;4.83;94.58
52185;BME280;38160;52.876;18.778;2023-02-15T14:18:27;102126.65;;;4.89;94.45
52185;BME280;38160;52.876;18.778;2023-02-15T14:21:12;102127.50;;;4.90;94.23
52185;BME280;38160;52.876;18.778;2023-02-15T14:24:00;102115.70;;;4.87;94.10
52185;BME280;38160;52.876;18.778;2023-02-15T14:26:49;102112.59;;;4.88;94.16
52185;BME280;38160;52.876;18.778;2023-02-15T14:29:45;102108.33;;;4.88;93.93
52185;BME280;38160;52.876;18.778;2023-02-15T14:32:29;102110.39;;;4.90;93.82
52185;BME280;38160;52.876;18.778;2023-02-15T14:35:15;102112.62;;;4.82;93.70
52185;BME280;38160;52.876;18.778;2023-02-15T14:37:55;102109.35;;;4.83;94.37
52185;BME280;38160;52.876;18.778;2023-02-15T14:40:40;102112.76;;;4.89;94.25
52185;BME280;38160;52.876;18.778;2023-02-15T14:43:48;102109.23;;;4.88;93.70
52185;BME280;38160;52.876;18.778;2023-02-15T14:46:33;102113.78;;;4.84;94.17
52185;BME280;38160;52.876;18.778;2023-02-15T14:49:35;102105.87;;;4.79;93.94
52185;BME280;38160;52.876;18.778;2023-02-15T14:52:14;102097.90;;;4.75;94.02
52185;BME280;38160;52.876;18.778;2023-02-15T14:55:11;102094.38;;;4.74;93.98
52185;BME280;38160;52.876;18.778;2023-02-15T14:58:12;102093.27;;;4.68;94.18
52185;BME280;38160;52.876;18.778;2023-02-15T15:00:48;102085.68;;;4.64;94.08
52185;BME280;38160;52.876;18.778;2023-02-15T15:03:27;102084.41;;;4.68;94.43
52185;BME280;38160;52.876;18.778;2023-02-15T15:06:06;102081.20;;;4.67;94.11
52185;BME280;38160;52.876;18.778;2023-02-15T15:08:43;102078.98;;;4.63;94.12
52185;BME280;38160;52.876;18.778;2023-02-15T15:11:43;102073.10;;;4.60;94.45
52185;BME280;38160;52.876;18.778;2023-02-15T15:14:43;102067.33;;;4.61;94.31
52185;BME280;38160;52.876;18.778;2023-02-15T15:17:54;102064.09;;;4.59;94.04
52185;BME280;38160;52.876;18.778;2023-02-15T15:26:25;102060.20;;;4.40;93.78
52185;BME280;38160;52.876;18.778;2023-02-15T15:29:11;102061.23;;;4.34;94.25
52185;BME280;38160;52.876;18.778;2023-02-15T15:36:32;102051.57;;;4.29;94.36
52185;BME280;38160;52.876;18.778;2023-02-15T15:43:34;102053.05;;;4.19;94.57
52185;BME280;38160;52.876;18.778;2023-02-15T15:46:33;102051.98;;;4.18;94.98
52185;BME280;38160;52.876;18.778;2023-02-15T15:49:16;102053.42;;;4.21;94.90
52185;BME280;38160;52.876;18.778;2023-02-15T15:51:53;102052.83;;;4.22;94.62
52185;BME280;38160;52.876;18.778;2023-02-15T15:54:30;102050.73;;;4.18;94.71
52185;BME280;38160;52.876;18.778;2023-02-15T15:57:12;102049.17;;;4.18;94.86
52185;BME280;38160;52.876;18.778;2023-02-15T15:59:51;102048.05;;;4.19;94.92
52185;BME280;38160;52.876;18.778;2023-02-15T16:02:28;102045.59;;;4.18;94.65
52185;BME280;38160;52.876;18.778;2023-02-15T16:05:11;102044.57;;;4.17;94.72
52185;BME280;38160;52.876;18.778;2023-02-15T16:07:48;102040.91;;;4.13;94.76
52185;BME280;38160;52.876;18.778;2023-02-15T16:10:28;102035.02;;;4.13;95.07
52185;BME280;38160;52.876;18.778;2023-02-15T16:13:15;102041.23;;;4.13;94.93
52185;BME280;38160;52.876;18.778;2023-02-15T16:15:56;102039.77;;;4.08;94.82
52185;BME280;38160;52.876;18.778;2023-02-15T16:18:36;102043.92;;;4.01;94.80
52185;BME280;38160;52.876;18.778;2023-02-15T16:21:31;102033.76;;;3.91;94.71
52185;BME280;38160;52.876;18.778;2023-02-15T16:24:45;102029.17;;;3.85;94.73
52185;BME280;38160;52.876;18.778;2023-02-15T16:27:39;102024.54;;;3.78;94.89
52185;BME280;38160;52.876;18.778;2023-02-15T16:31:14;102020.67;;;3.71;94.96
52185;BME280;38160;52.876;18.778;2023-02-15T16:33:54;102021.23;;;3.70;95.07
52185;BME280;38160;52.876;18.778;2023-02-15T16:36:30;102015.63;;;3.69;95.23
52185;BME280;38160;52.876;18.778;2023-02-15T16:39:16;102016.58;;;3.64;95.04
52185;BME280;38160;52.876;18.778;2023-02-15T16:41:56;102014.80;;;3.61;94.86
52185;BME280;38160;52.876;18.778;2023-02-15T16:44:36;102011.36;;;3.56;94.67
52185;BME280;38160;52.876;18.778;2023-02-15T16:47:17;102008.09;;;3.51;94.70
52185;BME280;38160;52.876;18.778;2023-02-15T16:49:59;102007.09;;;3.49;95.02
52185;BME280;38160;52.876;18.778;2023-02-15T16:52:38;102001.69;;;3.50;95.24
52185;BME280;38160;52.876;18.778;2023-02-15T16:55:24;101999.02;;;3.48;95.16
52185;BME280;38160;52.876;18.778;2023-02-15T16:58:02;101997.45;;;3.43;94.84
52185;BME280;38160;52.876;18.778;2023-02-15T17:00:40;101997.33;;;3.36;94.98
52185;BME280;38160;52.876;18.778;2023-02-15T17:03:25;101998.45;;;3.35;95.30
52185;BME280;38160;52.876;18.778;2023-02-15T17:06:03;101995.81;;;3.31;95.10
52185;BME280;38160;52.876;18.778;2023-02-15T17:08:45;102001.34;;;3.24;95.10
52185;BME280;38160;52.876;18.778;2023-02-15T17:11:22;101997.65;;;3.20;95.48
52185;BME280;38160;52.876;18.778;2023-02-15T17:14:28;101996.52;;;3.22;95.62
52185;BME280;38160;52.876;18.778;2023-02-15T17:17:07;101987.02;;;3.23;95.97
52185;BME280;38160;52.876;18.778;2023-02-15T17:19:50;101983.18;;;3.22;95.67
52185;BME280;38160;52.876;18.778;2023-02-15T17:22:29;101981.95;;;3.18;95.57
52185;BME280;38160;52.876;18.778;2023-02-15T17:25:20;101978.41;;;3.18;95.81
52185;BME280;38160;52.876;18.778;2023-02-15T17:27:59;101983.23;;;3.17;95.61
52185;BME280;38160;52.876;18.778;2023-02-15T18:15:18;101959.17;;;3.02;95.93
52185;BME280;38160;52.876;18.778;2023-02-15T18:18:04;101953.52;;;3.01;96.05
52185;BME280;38160;52.876;18.778;2023-02-15T18:21:49;101945.02;;;2.97;96.44
52185;BME280;38160;52.876;18.778;2023-02-15T18:24:46;101944.69;;;3.03;96.22
52185;BME280;38160;52.876;18.778;2023-02-15T18:50:37;101940.43;;;3.03;96.56
52185;BME280;38160;52.876;18.778;2023-02-15T18:54:31;101933.29;;;3.04;96.82
52185;BME280;38160;52.876;18.778;2023-02-15T19:12:16;101929.42;;;2.97;96.03
52185;BME280;38160;52.876;18.778;2023-02-15T19:45:24;101910.98;;;2.32;96.55
52185;BME280;38160;52.876;18.778;2023-02-15T19:57:58;101896.43;;;2.01;96.25
52185;BME280;38160;52.876;18.778;2023-02-15T20:05:51;101894.55;;;1.82;96.56
52185;BME280;38160;52.876;18.778;2023-02-15T20:49:12;101832.64;;;0.95;98.88
52185;BME280;38160;52.876;18.778;2023-02-15T20:52:16;101830.66;;;0.92;98.90
52185;BME280;38160;52.876;18.778;2023-02-15T20:55:04;101828.91;;;0.92;99.06
52185;BME280;38160;52.876;18.778;2023-02-15T20:57:53;101818.91;;;0.90;99.04
52185;BME280;38160;52.876;18.778;2023-02-15T21:00:37;101817.69;;;0.86;99.14
52185;BME280;38160;52.876;18.778;2023-02-15T21:03:14;101816.25;;;0.82;99.11